Time;durP1;ratioP1;P1;durP2;ratioP2;P2;SDS_P1;SDS_P2;PMS_P1;PMS_P2;Temp;Humidity;BMP_temperature;BMP_pressure;BME280_temperature;BME280_humidity;BME280_pressure;Samples;Min_cycle;Max_cycle;Signal;HPM_P1;HPM_P2
2023/12/21 00:01:20;;;;;;;1.57;0.67;;;7.60;99.90;;;;;;7389379;19;20131;-74
2023/12/21 00:03:45;;;;;;;0.20;0.20;;;7.70;99.90;;;;;;7387119;19;20170;-75
2023/12/21 00:06:11;;;;;;;0.67;0.40;;;7.60;99.90;;;;;;7388969;19;20150;-75
2023/12/21 00:08:37;;;;;;;0.30;0.30;;;7.60;99.90;;;;;;7390097;19;20206;-75
2023/12/21 00:11:03;;;;;;;0.20;0.20;;;7.50;99.90;;;;;;7388974;19;20509;-75
2023/12/21 00:13:28;;;;;;;0.20;0.20;;;7.50;99.90;;;;;;7389661;19;20135;-76
2023/12/21 00:15:54;;;;;;;0.20;0.20;;;7.50;99.90;;;;;;7387670;19;20134;-75
2023/12/21 00:18:20;;;;;;;0.47;0.33;;;7.50;99.90;;;;;;7386426;19;20141;-75
2023/12/21 00:20:46;;;;;;;0.30;0.30;;;7.40;99.90;;;;;;7390833;19;20438;-75
2023/12/21 00:23:11;;;;;;;0.30;0.30;;;7.50;99.90;;;;;;7387535;19;20135;-76
2023/12/21 00:25:37;;;;;;;0.20;0.20;;;7.70;99.90;;;;;;7389396;19;20150;-75
2023/12/21 00:28:03;;;;;;;0.53;0.37;;;7.60;99.90;;;;;;7387261;19;20497;-75
2023/12/21 00:30:29;;;;;;;0.30;0.30;;;7.40;99.90;;;;;;7389700;19;20580;-75
2023/12/21 00:32:55;;;;;;;0.33;0.33;;;7.40;99.90;;;;;;7389689;19;20150;-75
2023/12/21 00:35:20;;;;;;;0.20;0.20;;;7.40;99.90;;;;;;7389007;19;20162;-75
2023/12/21 00:37:46;;;;;;;0.20;0.20;;;7.50;99.90;;;;;;7385988;19;20245;-75
2023/12/21 00:40:12;;;;;;;0.10;0.10;;;7.60;99.90;;;;;;7389395;19;20169;-75
2023/12/21 00:42:41;;;;;;;0.20;0.20;;;7.70;99.90;;;;;;7388626;19;20146;-75
2023/12/21 00:45:08;;;;;;;0.20;0.20;;;7.50;99.90;;;;;;7389135;19;20154;-75
2023/12/21 00:47:34;;;;;;;0.30;0.30;;;7.40;99.90;;;;;;7389422;19;20146;-75
2023/12/21 00:50:00;;;;;;;0.20;0.20;;;7.50;99.90;;;;;;7387523;19;20139;-74
2023/12/21 00:52:26;;;;;;;0.13;0.13;;;7.60;99.90;;;;;;7390598;19;20591;-75
2023/12/21 00:54:52;;;;;;;0.30;0.30;;;7.50;99.90;;;;;;7388282;19;20206;-75
2023/12/21 00:57:17;;;;;;;0.37;0.37;;;7.60;99.90;;;;;;7388285;19;20182;-75
2023/12/21 00:59:43;;;;;;;0.20;0.20;;;7.50;99.90;;;;;;7387564;19;20150;-75
2023/12/21 01:02:09;;;;;;;0.30;0.30;;;7.60;99.90;;;;;;7387185;19;20151;-75
2023/12/21 01:04:35;;;;;;;0.20;0.20;;;7.60;99.90;;;;;;7385692;19;20178;-75
2023/12/21 01:07:01;;;;;;;0.20;0.20;;;7.70;99.90;;;;;;7389938;19;20127;-76
2023/12/21 01:09:27;;;;;;;0.63;0.63;;;7.60;99.90;;;;;;7387768;19;20220;-76
2023/12/21 01:11:53;;;;;;;0.30;0.30;;;7.50;99.90;;;;;;7387352;19;20202;-75
2023/12/21 01:14:18;;;;;;;0.10;0.10;;;7.60;99.90;;;;;;7387161;19;20737;-75
2023/12/21 01:16:44;;;;;;;0.20;0.20;;;7.70;99.90;;;;;;7387789;19;20171;-76
2023/12/21 01:19:10;;;;;;;0.20;0.20;;;7.70;99.90;;;;;;7395765;19;20573;-75
2023/12/21 01:21:37;;;;;;;0.30;0.30;;;7.70;99.90;;;;;;7395582;19;20649;-75
2023/12/21 01:24:04;;;;;;;0.73;0.40;;;7.60;99.90;;;;;;7395120;19;20154;-75
2023/12/21 01:26:30;;;;;;;0.37;0.37;;;7.50;99.90;;;;;;7394288;19;20213;-76
2023/12/21 01:28:56;;;;;;;0.10;0.10;;;7.50;99.90;;;;;;7395994;19;20171;-76
2023/12/21 01:31:22;;;;;;;0.20;0.20;;;7.50;99.90;;;;;;7394132;19;20154;-75
2023/12/21 01:33:47;;;;;;;0.20;0.20;;;7.70;99.90;;;;;;7394870;19;20610;-75
2023/12/21 01:36:13;;;;;;;0.20;0.20;;;7.60;99.90;;;;;;7392505;19;20155;-77
2023/12/21 01:38:39;;;;;;;0.20;0.20;;;7.60;99.90;;;;;;7386742;19;20162;-75
2023/12/21 01:41:05;;;;;;;0.27;0.27;;;7.50;99.90;;;;;;7395498;19;20145;-75
2023/12/21 01:43:30;;;;;;;0.20;0.20;;;7.50;99.90;;;;;;7393448;19;20520;-75
2023/12/21 01:45:59;;;;;;;0.20;0.20;;;7.70;99.90;;;;;;7393107;19;20158;-76
2023/12/21 01:48:26;;;;;;;0.20;0.20;;;7.80;99.90;;;;;;7393261;19;20227;-75
2023/12/21 01:50:53;;;;;;;0.20;0.20;;;7.60;99.90;;;;;;7393694;19;20142;-75
2023/12/21 01:53:19;;;;;;;0.20;0.20;;;7.70;99.90;;;;;;7394419;19;20226;-75
2023/12/21 01:55:46;;;;;;;0.10;0.10;;;7.60;99.90;;;;;;7392174;19;20150;-75
2023/12/21 01:58:12;;;;;;;0.20;0.20;;;7.60;99.90;;;;;;7394368;19;20571;-75
2023/12/21 02:00:38;;;;;;;0.23;0.23;;;7.70;99.90;;;;;;7393853;19;20249;-74
2023/12/21 02:03:05;;;;;;;0.20;0.20;;;7.80;99.90;;;;;;7394689;19;20603;-75
2023/12/21 02:05:30;;;;;;;0.20;0.20;;;7.70;99.90;;;;;;7389614;19;20171;-76
2023/12/21 02:07:56;;;;;;;0.23;0.23;;;7.80;99.90;;;;;;7393146;19;20134;-75
2023/12/21 02:10:22;;;;;;;0.17;0.17;;;7.70;99.90;;;;;;7393818;19;20146;-76
2023/12/21 02:12:48;;;;;;;0.10;0.10;;;7.70;99.90;;;;;;7396780;19;20135;-76
2023/12/21 02:15:14;;;;;;;0.20;0.20;;;7.80;99.90;;;;;;7392500;19;20139;-76
2023/12/21 02:17:42;;;;;;;0.20;0.20;;;7.80;99.90;;;;;;7392047;19;20490;-76
2023/12/21 02:20:10;;;;;;;0.20;0.20;;;7.80;99.90;;;;;;7392408;19;20184;-75
2023/12/21 02:22:39;;;;;;;0.20;0.20;;;7.70;99.90;;;;;;7391963;19;20171;-77
2023/12/21 02:25:05;;;;;;;0.20;0.20;;;7.60;99.90;;;;;;7394460;19;20242;-75
2023/12/21 02:27:31;;;;;;;0.90;0.20;;;7.70;99.90;;;;;;7391506;19;20202;-76
2023/12/21 02:29:57;;;;;;;0.13;0.13;;;7.80;99.90;;;;;;7393825;19;20142;-75
2023/12/21 02:32:23;;;;;;;0.80;0.30;;;7.80;99.90;;;;;;7390901;19;20158;-75
2023/12/21 02:34:49;;;;;;;0.20;0.20;;;7.80;99.90;;;;;;7393406;19;20158;-75
2023/12/21 02:37:15;;;;;;;0.20;0.20;;;7.80;99.90;;;;;;7389947;19;20138;-75
2023/12/21 02:39:40;;;;;;;0.33;0.33;;;7.80;99.90;;;;;;7391157;19;20145;-75
2023/12/21 02:42:06;;;;;;;0.20;0.20;;;7.80;99.90;;;;;;7392062;19;20131;-76
2023/12/21 02:44:32;;;;;;;0.10;0.10;;;7.80;99.90;;;;;;7391614;19;20143;-75
2023/12/21 02:46:58;;;;;;;0.20;0.20;;;7.80;99.90;;;;;;7391909;19;20146;-75
2023/12/21 02:49:24;;;;;;;0.30;0.30;;;7.80;99.90;;;;;;7393268;19;20148;-75
2023/12/21 02:51:49;;;;;;;0.20;0.20;;;7.70;99.90;;;;;;7393418;19;20138;-75
2023/12/21 02:54:15;;;;;;;0.20;0.20;;;7.70;99.90;;;;;;7389450;19;20140;-75
2023/12/21 02:56:41;;;;;;;0.23;0.23;;;7.80;99.90;;;;;;7388908;19;20517;-76
2023/12/21 02:59:07;;;;;;;0.20;0.20;;;7.80;99.90;;;;;;7391590;19;20504;-76
2023/12/21 03:01:33;;;;;;;0.10;0.10;;;7.90;99.90;;;;;;7391725;19;20149;-77
2023/12/21 03:04:00;;;;;;;0.10;0.10;;;7.90;99.90;;;;;;7392116;19;20801;-76
2023/12/21 03:06:26;;;;;;;0.20;0.20;;;7.90;99.90;;;;;;7393111;19;20226;-76
2023/12/21 03:08:53;;;;;;;0.20;0.20;;;7.80;99.90;;;;;;7388358;19;20150;-76
2023/12/21 03:11:18;;;;;;;0.37;0.37;;;7.90;99.90;;;;;;7391577;19;20274;-75
2023/12/21 03:13:44;;;;;;;0.10;0.10;;;7.80;99.90;;;;;;7393876;19;20146;-76
2023/12/21 03:16:10;;;;;;;0.20;0.20;;;7.70;99.90;;;;;;7388007;19;20162;-76
2023/12/21 03:18:36;;;;;;;0.30;0.30;;;7.80;99.90;;;;;;7382753;19;20588;-75
2023/12/21 03:21:02;;;;;;;0.20;0.20;;;7.80;99.90;;;;;;7393142;19;20142;-75
2023/12/21 03:23:28;;;;;;;0.30;0.30;;;7.70;99.90;;;;;;7390342;19;20134;-75
2023/12/21 03:25:54;;;;;;;0.20;0.20;;;7.80;99.90;;;;;;7387853;19;20482;-74
2023/12/21 03:28:20;;;;;;;0.10;0.10;;;7.90;99.90;;;;;;7390734;19;20142;-74
2023/12/21 03:30:45;;;;;;;0.13;0.13;;;7.70;99.90;;;;;;7389639;19;20151;-75
2023/12/21 03:33:11;;;;;;;0.10;0.10;;;7.90;99.90;;;;;;7392813;19;20482;-75
2023/12/21 03:35:37;;;;;;;0.20;0.20;;;8.00;99.90;;;;;;7389430;19;20138;-75
2023/12/21 03:38:03;;;;;;;0.10;0.10;;;8.00;99.90;;;;;;7387331;19;20151;-75
2023/12/21 03:40:29;;;;;;;0.20;0.20;;;7.90;99.90;;;;;;7390862;19;20879;-75
2023/12/21 03:42:55;;;;;;;0.20;0.20;;;8.00;99.90;;;;;;7388055;19;20135;-75
2023/12/21 03:45:20;;;;;;;0.17;0.17;;;7.90;99.90;;;;;;7390097;19;20138;-75
2023/12/21 03:47:48;;;;;;;0.20;0.20;;;7.90;99.90;;;;;;7390035;19;20127;-75
2023/12/21 03:50:14;;;;;;;0.20;0.20;;;7.80;99.90;;;;;;7390984;19;20547;-75
2023/12/21 03:52:41;;;;;;;0.10;0.10;;;7.80;99.90;;;;;;7390899;19;20251;-75
2023/12/21 03:55:07;;;;;;;0.20;0.20;;;7.90;99.90;;;;;;7387620;19;20134;-75
2023/12/21 03:57:33;;;;;;;0.30;0.20;;;8.00;99.90;;;;;;7390112;19;20148;-75
2023/12/21 04:00:00;;;;;;;0.20;0.20;;;8.00;99.90;;;;;;7387883;19;20599;-76
2023/12/21 04:02:26;;;;;;;0.20;0.20;;;8.00;99.90;;;;;;7389653;19;20596;-76
2023/12/21 04:04:52;;;;;;;0.10;0.10;;;8.10;99.90;;;;;;7386028;19;20186;-76
2023/12/21 04:07:18;;;;;;;0.20;0.20;;;7.90;99.90;;;;;;7390194;19;20157;-75
2023/12/21 04:09:43;;;;;;;0.40;0.40;;;7.90;99.90;;;;;;7387908;19;20150;-75
2023/12/21 04:12:09;;;;;;;0.20;0.20;;;7.90;99.90;;;;;;7389133;19;20161;-76
2023/12/21 04:14:35;;;;;;;0.27;0.27;;;8.00;99.90;;;;;;7387910;19;20146;-75
2023/12/21 04:17:01;;;;;;;0.20;0.20;;;8.00;99.90;;;;;;7390028;19;20158;-76
2023/12/21 04:19:27;;;;;;;0.10;0.10;;;8.10;99.90;;;;;;7389084;19;20221;-76
2023/12/21 04:21:53;;;;;;;0.40;0.33;;;8.10;99.90;;;;;;7390122;19;20150;-76
2023/12/21 04:24:19;;;;;;;0.20;0.20;;;8.10;99.90;;;;;;7389149;19;20486;-75
2023/12/21 04:26:45;;;;;;;0.20;0.20;;;8.10;99.90;;;;;;7390710;19;20154;-76
2023/12/21 04:29:10;;;;;;;0.60;0.50;;;8.00;99.90;;;;;;7387523;19;20151;-76
2023/12/21 04:31:41;;;;;;;0.30;0.30;;;8.10;99.90;;;;;;7389478;19;20138;-75
2023/12/21 04:34:06;;;;;;;0.20;0.20;;;7.90;99.90;;;;;;7389447;19;20171;-76
2023/12/21 04:36:32;;;;;;;0.20;0.20;;;8.00;99.90;;;;;;7386407;19;20575;-77
2023/12/21 04:38:58;;;;;;;0.20;0.20;;;7.90;99.90;;;;;;7387613;19;20460;-75
2023/12/21 04:41:23;;;;;;;0.20;0.20;;;7.90;99.90;;;;;;7390434;19;20146;-74
2023/12/21 04:43:49;;;;;;;0.20;0.20;;;7.90;99.90;;;;;;7388010;19;20496;-74
2023/12/21 04:46:15;;;;;;;0.10;0.10;;;7.90;99.90;;;;;;7389865;19;20753;-75
2023/12/21 04:48:41;;;;;;;0.10;0.10;;;7.90;99.90;;;;;;7390791;19;20160;-76
2023/12/21 04:51:06;;;;;;;0.13;0.13;;;7.90;99.90;;;;;;7396935;19;20206;-74
2023/12/21 04:53:32;;;;;;;0.17;0.17;;;7.90;99.90;;;;;;7393601;19;20487;-76
2023/12/21 04:55:58;;;;;;;0.13;0.13;;;7.90;99.90;;;;;;7394496;19;20138;-77
2023/12/21 04:58:23;;;;;;;0.30;0.30;;;7.90;99.90;;;;;;7396418;19;20170;-75
2023/12/21 05:00:50;;;;;;;0.20;0.20;;;8.00;99.90;;;;;;7396825;19;20491;-77
2023/12/21 05:03:19;;;;;;;0.20;0.20;;;7.80;99.90;;;;;;7395837;19;20584;-76
2023/12/21 05:05:46;;;;;;;0.30;0.30;;;7.90;99.90;;;;;;7396712;19;20151;-75
2023/12/21 05:08:12;;;;;;;0.20;0.20;;;7.90;99.90;;;;;;7395631;19;20155;-75
2023/12/21 05:10:38;;;;;;;0.10;0.10;;;8.00;99.90;;;;;;7396279;19;20142;-76
2023/12/21 05:13:04;;;;;;;0.17;0.17;;;8.10;99.90;;;;;;7394997;19;20628;-76
2023/12/21 05:15:30;;;;;;;0.20;0.20;;;8.00;99.90;;;;;;7395153;19;20131;-76
2023/12/21 05:17:56;;;;;;;0.20;0.20;;;8.00;99.90;;;;;;7394565;19;20230;-76
2023/12/21 05:20:22;;;;;;;0.20;0.20;;;7.90;99.90;;;;;;7393290;19;20134;-75
2023/12/21 05:22:47;;;;;;;0.23;0.23;;;8.10;99.90;;;;;;7395663;19;20147;-76
2023/12/21 05:25:16;;;;;;;0.20;0.20;;;8.30;99.90;;;;;;7398224;19;20126;-76
2023/12/21 05:27:42;;;;;;;0.20;0.20;;;8.10;99.90;;;;;;7396552;19;20137;-75
2023/12/21 05:30:09;;;;;;;0.20;0.20;;;8.10;99.90;;;;;;7395031;19;20146;-75
2023/12/21 05:32:35;;;;;;;0.20;0.20;;;8.10;99.90;;;;;;7394497;19;20622;-76
2023/12/21 05:35:02;;;;;;;0.20;0.20;;;7.90;99.90;;;;;;7395831;19;20131;-76
2023/12/21 05:37:27;;;;;;;0.20;0.20;;;8.00;99.90;;;;;;7393933;19;20149;-76
2023/12/21 05:39:53;;;;;;;0.20;0.20;;;8.00;99.90;;;;;;7392837;19;20139;-75
2023/12/21 05:42:19;;;;;;;0.20;0.20;;;7.90;99.90;;;;;;7393896;19;20131;-74
2023/12/21 05:44:45;;;;;;;0.50;0.47;;;7.80;99.90;;;;;;7393321;19;20520;-74
2023/12/21 05:47:10;;;;;;;0.30;0.30;;;8.00;99.90;;;;;;7393977;19;20135;-75
2023/12/21 05:49:36;;;;;;;0.20;0.20;;;8.00;99.90;;;;;;7394118;19;20151;-75
2023/12/21 05:52:02;;;;;;;0.10;0.10;;;8.00;99.90;;;;;;7394119;19;20174;-75
2023/12/21 05:54:30;;;;;;;0.30;0.30;;;8.20;99.90;;;;;;7395016;19;20216;-75
2023/12/21 05:56:55;;;;;;;0.20;0.20;;;8.00;99.90;;;;;;7391467;19;20146;-76
2023/12/21 05:59:21;;;;;;;0.20;0.20;;;8.20;99.90;;;;;;7394481;19;20491;-76
2023/12/21 06:01:47;;;;;;;0.20;0.20;;;8.20;99.90;;;;;;7392596;19;20153;-76
2023/12/21 06:04:14;;;;;;;0.20;0.20;;;8.10;99.90;;;;;;7392422;19;20185;-75
2023/12/21 06:06:44;;;;;;;0.20;0.13;;;8.20;99.90;;;;;;7395460;19;20131;-75
2023/12/21 06:09:09;;;;;;;0.10;0.10;;;8.40;99.90;;;;;;7392479;19;20134;-75
2023/12/21 06:11:35;;;;;;;0.13;0.13;;;8.20;99.90;;;;;;7394793;19;20205;-76
2023/12/21 06:14:01;;;;;;;0.20;0.20;;;8.20;99.90;;;;;;7394146;19;20534;-76
2023/12/21 06:16:27;;;;;;;0.20;0.20;;;8.30;99.90;;;;;;7392102;19;20174;-77
2023/12/21 06:18:53;;;;;;;0.10;0.10;;;8.20;99.90;;;;;;7389832;19;20146;-76
2023/12/21 06:21:18;;;;;;;0.13;0.13;;;8.20;99.90;;;;;;7394451;19;20167;-76
2023/12/21 06:23:44;;;;;;;0.20;0.20;;;8.10;99.90;;;;;;7393500;19;20161;-76
2023/12/21 06:26:10;;;;;;;0.20;0.20;;;8.30;99.90;;;;;;7393124;19;20138;-76
2023/12/21 06:28:36;;;;;;;0.20;0.20;;;8.20;99.90;;;;;;7393309;19;20139;-76
2023/12/21 06:31:03;;;;;;;0.20;0.20;;;8.20;99.90;;;;;;7394027;19;20158;-76
2023/12/21 06:33:29;;;;;;;0.30;0.30;;;8.00;99.90;;;;;;7394687;19;20161;-76
2023/12/21 06:35:55;;;;;;;0.40;0.40;;;8.00;99.90;;;;;;7390588;19;20619;-75
2023/12/21 06:38:23;;;;;;;0.20;0.20;;;8.10;99.90;;;;;;7393934;19;20655;-75
2023/12/21 06:40:50;;;;;;;0.20;0.20;;;8.30;99.90;;;;;;7392413;19;20138;-76
2023/12/21 06:43:16;;;;;;;0.17;0.10;;;8.30;99.90;;;;;;7393206;19;20158;-77
2023/12/21 06:45:42;;;;;;;0.47;0.47;;;8.20;99.90;;;;;;7394071;19;20138;-75
2023/12/21 06:48:08;;;;;;;0.20;0.20;;;8.30;99.90;;;;;;7393911;19;20636;-76
2023/12/21 06:50:34;;;;;;;0.13;0.13;;;8.30;99.90;;;;;;7392718;19;20135;-75
2023/12/21 06:53:00;;;;;;;0.20;0.20;;;8.30;99.90;;;;;;7390599;19;20210;-75
2023/12/21 06:55:26;;;;;;;0.23;0.23;;;8.30;99.90;;;;;;7391530;19;20143;-77
2023/12/21 06:57:51;;;;;;;0.20;0.20;;;8.20;99.90;;;;;;7391703;19;20134;-78
2023/12/21 07:00:17;;;;;;;0.20;0.20;;;8.30;99.90;;;;;;7393272;19;20167;-75
2023/12/21 07:02:43;;;;;;;0.20;0.20;;;8.30;99.90;;;;;;7391726;19;20138;-73
2023/12/21 07:05:09;;;;;;;0.20;0.20;;;8.40;99.90;;;;;;7389984;19;20660;-75
2023/12/21 07:07:35;;;;;;;0.20;0.20;;;8.40;99.90;;;;;;7390597;19;20162;-75
2023/12/21 07:10:00;;;;;;;0.20;0.20;;;8.50;99.90;;;;;;7392111;19;20146;-75
2023/12/21 07:12:27;;;;;;;0.20;0.20;;;8.60;99.90;;;;;;7388749;19;20203;-75
2023/12/21 07:14:54;;;;;;;0.37;0.23;;;8.40;99.90;;;;;;7391006;19;20157;-75
2023/12/21 07:17:19;;;;;;;0.27;0.23;;;8.20;99.90;;;;;;7390236;19;20159;-73
2023/12/21 07:19:45;;;;;;;0.30;0.30;;;8.20;99.90;;;;;;7390228;19;20147;-74
2023/12/21 07:22:11;;;;;;;0.20;0.20;;;8.30;99.90;;;;;;7393023;19;20162;-75
2023/12/21 07:24:37;;;;;;;0.27;0.27;;;8.30;99.90;;;;;;7389875;19;20489;-75
2023/12/21 07:27:03;;;;;;;0.20;0.20;;;8.40;99.90;;;;;;7393037;19;20139;-75
2023/12/21 07:29:29;;;;;;;0.20;0.20;;;8.30;99.90;;;;;;7391736;19;20746;-75
2023/12/21 07:31:55;;;;;;;0.50;0.50;;;8.40;99.90;;;;;;7392095;19;20183;-75
2023/12/21 07:34:20;;;;;;;0.20;0.20;;;8.50;99.90;;;;;;7390105;19;20123;-76
2023/12/21 07:36:46;;;;;;;0.20;0.20;;;8.60;99.90;;;;;;7389804;19;20127;-75
2023/12/21 07:39:12;;;;;;;0.30;0.30;;;8.70;99.90;;;;;;7391107;19;20576;-75
2023/12/21 07:41:38;;;;;;;0.20;0.20;;;8.70;99.90;;;;;;7392489;19;20127;-76
2023/12/21 07:44:04;;;;;;;0.20;0.20;;;8.60;99.90;;;;;;7391347;19;20134;-76
2023/12/21 07:46:30;;;;;;;0.30;0.30;;;8.50;99.90;;;;;;7391401;19;20560;-75
2023/12/21 07:48:56;;;;;;;0.20;0.20;;;8.50;99.90;;;;;;7388854;19;20152;-75
2023/12/21 07:51:21;;;;;;;0.20;0.20;;;8.50;99.90;;;;;;7391572;19;20131;-76
2023/12/21 07:53:47;;;;;;;0.23;0.23;;;8.50;99.90;;;;;;7390933;19;20145;-76
2023/12/21 07:56:13;;;;;;;0.20;0.20;;;8.60;99.90;;;;;;7387660;19;20668;-75
2023/12/21 07:58:39;;;;;;;0.20;0.20;;;8.40;99.90;;;;;;7390137;19;20214;-75
2023/12/21 08:01:05;;;;;;;1.17;0.40;;;8.60;99.90;;;;;;7387618;19;20126;-75
2023/12/21 08:03:30;;;;;;;0.97;0.50;;;8.70;99.90;;;;;;7388840;19;20201;-74
2023/12/21 08:05:56;;;;;;;0.20;0.20;;;8.80;99.90;;;;;;7388477;19;20134;-74
2023/12/21 08:08:22;;;;;;;0.30;0.30;;;8.70;99.90;;;;;;7389354;19;20130;-75
2023/12/21 08:10:48;;;;;;;0.30;0.30;;;8.70;99.90;;;;;;7386184;19;20154;-75
2023/12/21 08:13:16;;;;;;;1.30;0.40;;;8.70;99.90;;;;;;7390222;19;20138;-75
2023/12/21 08:15:42;;;;;;;0.20;0.20;;;8.70;99.90;;;;;;7387102;19;20540;-74
2023/12/21 08:18:10;;;;;;;0.20;0.20;;;8.60;99.90;;;;;;7387701;19;20130;-77
2023/12/21 08:20:36;;;;;;;0.20;0.20;;;8.70;99.90;;;;;;7387094;19;20150;-74
2023/12/21 08:23:03;;;;;;;0.20;0.20;;;8.70;99.90;;;;;;7388416;19;20572;-74
2023/12/21 08:25:31;;;;;;;0.20;0.20;;;8.70;99.90;;;;;;7388625;19;20143;-76
2023/12/21 08:27:57;;;;;;;0.57;0.20;;;8.80;99.90;;;;;;7388122;19;20155;-75
2023/12/21 08:30:23;;;;;;;1.27;0.33;;;8.70;99.90;;;;;;7389894;19;20185;-76
2023/12/21 08:32:48;;;;;;;0.20;0.20;;;8.80;99.90;;;;;;7387339;19;20130;-75
2023/12/21 08:35:14;;;;;;;0.40;0.40;;;9.00;99.90;;;;;;7389478;19;20131;-75
2023/12/21 08:37:40;;;;;;;0.30;0.30;;;9.00;99.90;;;;;;7387098;19;20624;-75
2023/12/21 08:40:07;;;;;;;0.30;0.30;;;9.00;99.90;;;;;;7388650;19;20163;-74
2023/12/21 08:42:32;;;;;;;0.30;0.30;;;9.10;99.90;;;;;;7386942;19;20142;-75
2023/12/21 08:45:05;;;;;;;0.40;0.40;;;9.10;99.90;;;;;;7388424;19;20142;-76
2023/12/21 08:47:38;;;;;;;0.60;0.40;;;9.00;99.90;;;;;;7387485;19;20150;-77
2023/12/21 08:50:04;;;;;;;0.67;0.40;;;9.00;99.90;;;;;;7388884;19;20171;-76
2023/12/21 08:52:30;;;;;;;0.23;0.23;;;9.10;99.90;;;;;;7388959;19;20171;-77
2023/12/21 08:54:56;;;;;;;0.30;0.30;;;9.00;99.90;;;;;;7387756;19;20135;-76
2023/12/21 08:57:22;;;;;;;0.40;0.40;;;9.10;99.90;;;;;;7390705;19;20130;-76
2023/12/21 08:59:48;;;;;;;0.30;0.30;;;9.00;99.90;;;;;;7387742;19;20141;-76
2023/12/21 09:02:14;;;;;;;0.20;0.20;;;9.10;99.90;;;;;;7388599;19;20620;-76
2023/12/21 09:04:40;;;;;;;0.20;0.20;;;8.90;99.90;;;;;;7385633;19;20193;-74
2023/12/21 09:07:05;;;;;;;0.13;0.13;;;9.00;99.90;;;;;;7387347;19;20239;-75
2023/12/21 09:09:32;;;;;;;0.23;0.20;;;9.00;99.90;;;;;;7386954;19;20150;-74
2023/12/21 09:11:58;;;;;;;0.33;0.33;;;9.00;99.90;;;;;;7388989;19;20147;-74
2023/12/21 09:14:24;;;;;;;0.20;0.20;;;9.10;99.90;;;;;;7388945;19;20217;-74
2023/12/21 09:16:53;;;;;;;0.60;0.60;;;9.10;99.90;;;;;;7386545;19;20163;-75
2023/12/21 09:19:19;;;;;;;0.50;0.50;;;8.90;99.90;;;;;;7387910;19;20150;-74
2023/12/21 09:21:45;;;;;;;0.30;0.30;;;8.90;99.90;;;;;;7388246;19;20165;-75
2023/12/21 09:24:10;;;;;;;0.30;0.30;;;9.10;99.90;;;;;;7388432;19;20234;-74
2023/12/21 09:26:36;;;;;;;0.20;0.20;;;9.10;99.90;;;;;;7388136;19;20189;-73
2023/12/21 09:29:04;;;;;;;0.27;0.27;;;9.00;99.90;;;;;;7384758;19;20159;-74
2023/12/21 09:31:31;;;;;;;0.30;0.30;;;9.10;99.90;;;;;;7387994;19;20210;-75
2023/12/21 09:33:57;;;;;;;0.30;0.30;;;9.10;99.90;;;;;;7384336;19;20163;-79
2023/12/21 09:36:23;;;;;;;0.10;0.10;;;9.20;99.90;;;;;;7390818;19;20142;-80
2023/12/21 09:38:49;;;;;;;0.40;0.40;;;9.30;99.90;;;;;;7394380;19;20138;-78
2023/12/21 09:41:15;;;;;;;0.40;0.40;;;9.40;99.90;;;;;;7393128;19;20175;-77
2023/12/21 09:43:43;;;;;;;0.20;0.20;;;9.50;99.90;;;;;;7393497;19;20258;-77
2023/12/21 09:46:09;;;;;;;0.20;0.20;;;9.50;99.90;;;;;;7392687;19;20172;-79
2023/12/21 09:48:38;;;;;;;0.87;0.70;;;9.40;99.90;;;;;;7393230;19;20145;-78
2023/12/21 09:51:05;;;;;;;0.20;0.20;;;9.40;99.90;;;;;;7393192;19;20671;-78
2023/12/21 09:53:35;;;;;;;0.30;0.30;;;9.40;99.90;;;;;;7393948;19;20135;-81
2023/12/21 09:56:02;;;;;;;0.30;0.30;;;9.60;99.90;;;;;;7392865;19;20157;-75
2023/12/21 09:58:31;;;;;;;0.20;0.20;;;9.50;99.90;;;;;;7392340;19;20559;-75
2023/12/21 10:00:57;;;;;;;0.30;0.30;;;9.40;99.90;;;;;;7393669;19;20221;-76
2023/12/21 10:03:22;;;;;;;0.50;0.40;;;9.40;99.90;;;;;;7392674;19;20191;-78
2023/12/21 10:05:48;;;;;;;0.23;0.23;;;9.50;99.90;;;;;;7393458;19;20135;-75
2023/12/21 10:08:15;;;;;;;0.30;0.30;;;9.50;99.90;;;;;;7391619;19;20130;-76
2023/12/21 10:10:41;;;;;;;0.20;0.20;;;9.60;99.90;;;;;;7394920;19;20615;-76
2023/12/21 10:13:06;;;;;;;0.40;0.40;;;9.50;99.90;;;;;;7396559;19;20138;-75
2023/12/21 10:15:33;;;;;;;0.30;0.30;;;9.50;99.90;;;;;;7390088;19;20146;-77
2023/12/21 10:17:59;;;;;;;0.23;0.23;;;9.50;99.90;;;;;;7393182;19;20607;-77
2023/12/21 10:20:26;;;;;;;0.10;0.10;;;9.50;99.90;;;;;;7394484;19;20150;-77
2023/12/21 10:22:52;;;;;;;0.20;0.20;;;9.50;99.90;;;;;;7396209;19;20139;-77
2023/12/21 10:25:21;;;;;;;0.37;0.27;;;9.60;99.90;;;;;;7398354;19;20248;-78
2023/12/21 10:27:57;;;;;;;0.40;0.40;;;9.60;99.90;;;;;;7398764;19;20134;-78
2023/12/21 10:30:26;;;;;;;0.27;0.27;;;9.40;99.90;;;;;;7396781;19;20138;-78
2023/12/21 10:32:53;;;;;;;0.40;0.40;;;9.50;99.90;;;;;;7400191;19;20146;-79
2023/12/21 10:35:19;;;;;;;0.43;0.43;;;9.50;99.90;;;;;;7398813;19;20122;-76
2023/12/21 10:37:48;;;;;;;0.60;0.57;;;9.50;99.90;;;;;;7397090;19;20151;-77
2023/12/21 10:40:15;;;;;;;0.20;0.20;;;9.70;99.90;;;;;;7394584;19;20620;-78
2023/12/21 10:42:47;;;;;;;0.30;0.30;;;9.60;99.90;;;;;;7395220;19;20130;-77
2023/12/21 10:45:17;;;;;;;0.30;0.30;;;9.50;99.90;;;;;;7393488;19;20134;-78
2023/12/21 10:47:50;;;;;;;0.30;0.30;;;9.60;99.90;;;;;;7392766;19;20131;-80
2023/12/21 10:50:18;;;;;;;0.60;0.50;;;9.60;99.90;;;;;;7393275;19;20149;-79
2023/12/21 10:52:46;;;;;;;0.60;0.50;;;9.50;99.90;;;;;;7394051;19;20511;-78
2023/12/21 10:55:15;;;;;;;0.20;0.20;;;9.60;99.90;;;;;;7399139;19;20449;-79
2023/12/21 10:57:43;;;;;;;0.53;0.50;;;9.50;99.90;;;;;;7395904;19;20153;-78
2023/12/21 11:00:15;;;;;;;0.40;0.40;;;9.60;99.90;;;;;;7395265;19;20604;-80
2023/12/21 11:02:52;;;;;;;0.53;0.30;;;9.70;99.90;;;;;;7393698;19;20130;-78
2023/12/21 11:05:20;;;;;;;0.60;0.60;;;9.70;99.90;;;;;;7392150;19;20154;-76
2023/12/21 11:07:51;;;;;;;0.13;0.13;;;9.70;99.90;;;;;;7391557;19;20146;-80
2023/12/21 11:10:19;;;;;;;0.70;0.70;;;9.90;99.90;;;;;;7390964;19;20326;-76
2023/12/21 11:12:45;;;;;;;0.50;0.50;;;9.80;99.90;;;;;;7387581;19;20158;-77
2023/12/21 11:15:13;;;;;;;0.40;0.30;;;9.80;99.90;;;;;;7392470;19;20167;-75
2023/12/21 11:17:42;;;;;;;0.50;0.40;;;9.80;99.90;;;;;;7388229;19;20226;-77
2023/12/21 11:20:12;;;;;;;2.10;1.07;;;9.80;99.90;;;;;;7387891;19;20139;-77
2023/12/21 11:22:38;;;;;;;0.30;0.30;;;9.80;99.90;;;;;;7396493;19;20154;-76
2023/12/21 11:25:05;;;;;;;0.53;0.50;;;9.70;99.90;;;;;;7393141;19;20582;-76
2023/12/21 11:27:31;;;;;;;0.80;0.30;;;9.80;99.90;;;;;;7390738;19;20142;-79
2023/12/21 11:30:12;;;;;;;0.30;0.30;;;9.80;99.90;;;;;;7390647;19;20147;-76
2023/12/21 11:32:41;;;;;;;1.00;0.83;;;9.70;99.90;;;;;;7389759;19;20211;-76
2023/12/21 11:35:21;;;;;;;0.27;0.27;;;9.70;99.90;;;;;;7392291;19;20190;-76
2023/12/21 11:37:54;;;;;;;0.73;0.60;;;9.80;99.90;;;;;;7390205;19;20138;-76
2023/12/21 11:40:21;;;;;;;0.40;0.40;;;9.70;99.90;;;;;;7392070;19;20171;-78
2023/12/21 11:42:48;;;;;;;0.23;0.23;;;9.70;99.90;;;;;;7392224;19;20153;-77
2023/12/21 11:45:30;;;;;;;0.33;0.30;;;9.70;99.90;;;;;;7389086;19;20154;-77
2023/12/21 11:48:03;;;;;;;0.77;0.30;;;9.80;99.90;;;;;;7389878;19;20253;-76
2023/12/21 11:50:31;;;;;;;0.40;0.30;;;9.90;99.90;;;;;;7389308;19;20170;-78
2023/12/21 11:53:08;;;;;;;0.30;0.30;;;9.80;99.90;;;;;;7390127;19;20143;-77
2023/12/21 11:55:38;;;;;;;0.20;0.20;;;9.80;99.90;;;;;;7388425;19;20147;-76
2023/12/21 11:58:25;;;;;;;0.20;0.20;;;9.80;99.90;;;;;;7387755;19;20155;-76
2023/12/21 12:00:55;;;;;;;0.30;0.30;;;9.80;99.90;;;;;;7390448;19;20134;-78
2023/12/21 12:03:23;;;;;;;0.53;0.30;;;9.80;99.90;;;;;;7388540;19;20208;-78
2023/12/21 12:05:53;;;;;;;0.13;0.13;;;9.80;99.90;;;;;;7392213;19;20151;-75
2023/12/21 12:08:25;;;;;;;0.30;0.30;;;9.90;99.90;;;;;;7387771;19;20310;-77
2023/12/21 12:10:52;;;;;;;0.40;0.40;;;9.80;99.90;;;;;;7389836;19;20141;-76
2023/12/21 12:13:19;;;;;;;0.53;0.53;;;9.80;99.90;;;;;;7390050;19;20209;-75
2023/12/21 12:15:48;;;;;;;0.50;0.43;;;9.90;99.90;;;;;;7389141;19;20158;-76
2023/12/21 12:18:15;;;;;;;1.03;0.80;;;9.90;99.90;;;;;;7388045;19;20618;-75
2023/12/21 12:20:45;;;;;;;0.60;0.50;;;9.90;99.90;;;;;;7391930;19;20224;-77
2023/12/21 12:23:12;;;;;;;0.20;0.20;;;9.90;99.90;;;;;;7391200;19;20588;-74
2023/12/21 12:25:38;;;;;;;0.30;0.30;;;10.00;99.90;;;;;;7389242;19;20457;-75
2023/12/21 12:28:04;;;;;;;0.43;0.30;;;10.00;99.90;;;;;;7389647;19;20186;-75
2023/12/21 12:30:33;;;;;;;0.90;0.70;;;10.10;99.90;;;;;;7388502;19;20145;-75
2023/12/21 12:33:02;;;;;;;1.20;1.10;;;10.10;99.90;;;;;;7388329;19;20139;-75
2023/12/21 12:35:31;;;;;;;0.43;0.40;;;10.00;99.90;;;;;;7388118;19;20154;-75
2023/12/21 12:37:58;;;;;;;0.33;0.33;;;9.90;99.90;;;;;;7385454;19;20142;-74
2023/12/21 12:40:24;;;;;;;0.50;0.40;;;10.00;99.90;;;;;;7387884;19;20131;-75
2023/12/21 12:42:51;;;;;;;0.43;0.40;;;10.00;99.90;;;;;;7388047;19;20157;-75
2023/12/21 12:45:18;;;;;;;0.33;0.33;;;10.00;99.90;;;;;;7387075;19;20138;-74
2023/12/21 12:47:44;;;;;;;0.20;0.20;;;9.90;99.90;;;;;;7388202;19;20142;-74
2023/12/21 12:50:16;;;;;;;0.23;0.23;;;10.00;99.90;;;;;;7387937;19;20572;-74
2023/12/21 12:52:44;;;;;;;0.30;0.30;;;10.00;99.90;;;;;;7390864;19;20134;-74
2023/12/21 12:55:11;;;;;;;1.03;0.37;;;10.00;99.90;;;;;;7390374;19;20139;-75